sensor_id;sensor_type;location;lat;lon;timestamp;pressure;altitude;pressure_sealevel;temperature;humidity
10718;BME280;13513;42.700;23.124;2022-11-13T00:02:23;94230.44;;;7.54;100.00
10718;BME280;13513;42.700;23.124;2022-11-13T00:04:53;94230.25;;;7.56;100.00
10718;BME280;13513;42.700;23.124;2022-11-13T00:07:24;94230.25;;;7.56;100.00
10718;BME280;13513;42.700;23.124;2022-11-13T00:09:54;94232.63;;;7.51;100.00
10718;BME280;13513;42.700;23.124;2022-11-13T00:12:25;94232.22;;;7.47;100.00
10718;BME280;13513;42.700;23.124;2022-11-13T00:14:57;94218.84;;;7.66;100.00
10718;BME280;13513;42.700;23.124;2022-11-13T00:17:28;94222.67;;;7.63;100.00
10718;BME280;13513;42.700;23.124;2022-11-13T00:20:03;94216.51;;;7.67;100.00
10718;BME280;13513;42.700;23.124;2022-11-13T00:22:34;94222.48;;;7.65;100.00
10718;BME280;13513;42.700;23.124;2022-11-13T00:25:05;94219.47;;;7.68;100.00
10718;BME280;13513;42.700;23.124;2022-11-13T00:27:36;94222.52;;;7.78;100.00
10718;BME280;13513;42.700;23.124;2022-11-13T00:30:07;94220.22;;;7.79;100.00
10718;BME280;13513;42.700;23.124;2022-11-13T00:32:39;94217.30;;;7.84;100.00
10718;BME280;13513;42.700;23.124;2022-11-13T00:35:10;94223.08;;;7.90;100.00
10718;BME280;13513;42.700;23.124;2022-11-13T00:37:41;94219.42;;;7.91;100.00
10718;BME280;13513;42.700;23.124;2022-11-13T00:40:12;94224.00;;;7.93;100.00
10718;BME280;13513;42.700;23.124;2022-11-13T00:42:42;94223.48;;;7.94;100.00
10718;BME280;13513;42.700;23.124;2022-11-13T00:45:13;94220.35;;;7.94;100.00
10718;BME280;13513;42.700;23.124;2022-11-13T00:47:44;94214.79;;;7.93;100.00
10718;BME280;13513;42.700;23.124;2022-11-13T00:50:15;94213.85;;;7.84;100.00
10718;BME280;13513;42.700;23.124;2022-11-13T00:52:45;94212.64;;;7.86;100.00
10718;BME280;13513;42.700;23.124;2022-11-13T00:55:16;94217.50;;;7.83;100.00
10718;BME280;13513;42.700;23.124;2022-11-13T00:57:47;94219.22;;;7.86;100.00
10718;BME280;13513;42.700;23.124;2022-11-13T01:00:18;94215.58;;;7.94;100.00
10718;BME280;13513;42.700;23.124;2022-11-13T01:02:48;94210.95;;;7.96;100.00
10718;BME280;13513;42.700;23.124;2022-11-13T01:05:19;94209.42;;;7.91;100.00
10718;BME280;13513;42.700;23.124;2022-11-13T01:07:49;94207.92;;;7.99;100.00
10718;BME280;13513;42.700;23.124;2022-11-13T01:10:21;94213.78;;;8.01;100.00
10718;BME280;13513;42.700;23.124;2022-11-13T01:12:52;94208.52;;;8.01;100.00
10718;BME280;13513;42.700;23.124;2022-11-13T01:15:22;94214.02;;;8.06;100.00
10718;BME280;13513;42.700;23.124;2022-11-13T01:17:53;94213.83;;;8.07;100.00
10718;BME280;13513;42.700;23.124;2022-11-13T01:20:24;94220.61;;;8.12;100.00
10718;BME280;13513;42.700;23.124;2022-11-13T01:22:55;94217.64;;;8.05;100.00
10718;BME280;13513;42.700;23.124;2022-11-13T01:25:27;94216.75;;;8.08;100.00
10718;BME280;13513;42.700;23.124;2022-11-13T01:27:57;94211.89;;;8.18;100.00
10718;BME280;13513;42.700;23.124;2022-11-13T01:30:27;94202.48;;;8.13;100.00
10718;BME280;13513;42.700;23.124;2022-11-13T01:32:58;94199.75;;;8.11;100.00
10718;BME280;13513;42.700;23.124;2022-11-13T01:35:29;94203.63;;;8.21;100.00
10718;BME280;13513;42.700;23.124;2022-11-13T01:38:00;94197.20;;;8.07;100.00
10718;BME280;13513;42.700;23.124;2022-11-13T01:40:31;94202.38;;;8.17;100.00
10718;BME280;13513;42.700;23.124;2022-11-13T01:43:25;94204.56;;;8.24;100.00
10718;BME280;13513;42.700;23.124;2022-11-13T01:46:04;94200.80;;;8.23;100.00
10718;BME280;13513;42.700;23.124;2022-11-13T01:48:41;94202.75;;;8.38;100.00
10718;BME280;13513;42.700;23.124;2022-11-13T01:51:07;94202.25;;;8.52;100.00
10718;BME280;13513;42.700;23.124;2022-11-13T01:53:36;94197.88;;;8.22;100.00
10718;BME280;13513;42.700;23.124;2022-11-13T01:56:08;94194.66;;;8.46;100.00
10718;BME280;13513;42.700;23.124;2022-11-13T01:58:40;94188.16;;;8.42;100.00
10718;BME280;13513;42.700;23.124;2022-11-13T02:01:12;94184.12;;;8.40;100.00
10718;BME280;13513;42.700;23.124;2022-11-13T02:03:43;94190.20;;;8.47;100.00
10718;BME280;13513;42.700;23.124;2022-11-13T02:06:13;94190.30;;;8.43;100.00
10718;BME280;13513;42.700;23.124;2022-11-13T02:08:44;94191.39;;;8.44;100.00
10718;BME280;13513;42.700;23.124;2022-11-13T02:11:16;94187.77;;;8.52;100.00
10718;BME280;13513;42.700;23.124;2022-11-13T02:13:46;94194.16;;;8.47;100.00
10718;BME280;13513;42.700;23.124;2022-11-13T02:16:17;94193.23;;;8.44;100.00
10718;BME280;13513;42.700;23.124;2022-11-13T02:18:49;94194.26;;;8.43;100.00
10718;BME280;13513;42.700;23.124;2022-11-13T02:24:23;94190.38;;;8.32;100.00
10718;BME280;13513;42.700;23.124;2022-11-13T02:26:55;94187.34;;;8.42;100.00
10718;BME280;13513;42.700;23.124;2022-11-13T02:29:26;94194.33;;;8.25;100.00
10718;BME280;13513;42.700;23.124;2022-11-13T02:31:57;94198.27;;;8.25;100.00
10718;BME280;13513;42.700;23.124;2022-11-13T02:34:27;94193.73;;;8.37;100.00
10718;BME280;13513;42.700;23.124;2022-11-13T02:36:58;94195.67;;;8.52;100.00
10718;BME280;13513;42.700;23.124;2022-11-13T02:39:28;94192.91;;;8.36;100.00
10718;BME280;13513;42.700;23.124;2022-11-13T02:42:00;94188.17;;;8.29;100.00
10718;BME280;13513;42.700;23.124;2022-11-13T02:44:31;94189.28;;;8.37;100.00
10718;BME280;13513;42.700;23.124;2022-11-13T02:47:01;94196.66;;;8.31;100.00
10718;BME280;13513;42.700;23.124;2022-11-13T02:49:31;94193.04;;;8.39;100.00
10718;BME280;13513;42.700;23.124;2022-11-13T02:52:02;94193.63;;;8.34;100.00
10718;BME280;13513;42.700;23.124;2022-11-13T02:54:33;94190.28;;;8.29;100.00
10718;BME280;13513;42.700;23.124;2022-11-13T02:57:04;94187.45;;;8.31;100.00
10718;BME280;13513;42.700;23.124;2022-11-13T02:59:35;94195.86;;;8.50;100.00
10718;BME280;13513;42.700;23.124;2022-11-13T03:02:06;94201.13;;;8.57;100.00
10718;BME280;13513;42.700;23.124;2022-11-13T03:04:37;94199.61;;;8.65;100.00
10718;BME280;13513;42.700;23.124;2022-11-13T03:07:07;94200.43;;;8.65;100.00
10718;BME280;13513;42.700;23.124;2022-11-13T03:09:38;94200.42;;;8.72;100.00
10718;BME280;13513;42.700;23.124;2022-11-13T03:12:09;94210.86;;;8.76;100.00
10718;BME280;13513;42.700;23.124;2022-11-13T03:14:40;94206.09;;;8.62;100.00
10718;BME280;13513;42.700;23.124;2022-11-13T03:17:11;94201.95;;;8.64;100.00
10718;BME280;13513;42.700;23.124;2022-11-13T03:19:42;94204.77;;;8.69;100.00
10718;BME280;13513;42.700;23.124;2022-11-13T03:22:12;94208.11;;;8.86;100.00
10718;BME280;13513;42.700;23.124;2022-11-13T03:24:42;94205.38;;;8.84;100.00
10718;BME280;13513;42.700;23.124;2022-11-13T03:27:13;94205.88;;;8.96;100.00
10718;BME280;13513;42.700;23.124;2022-11-13T03:29:44;94205.06;;;8.96;100.00
10718;BME280;13513;42.700;23.124;2022-11-13T03:32:14;94203.64;;;9.06;100.00
10718;BME280;13513;42.700;23.124;2022-11-13T03:34:47;94210.03;;;8.95;100.00
10718;BME280;13513;42.700;23.124;2022-11-13T03:37:18;94208.92;;;9.06;100.00
10718;BME280;13513;42.700;23.124;2022-11-13T03:39:48;94209.30;;;9.10;100.00
10718;BME280;13513;42.700;23.124;2022-11-13T03:42:19;94210.00;;;9.08;100.00
10718;BME280;13513;42.700;23.124;2022-11-13T03:44:50;94213.09;;;8.98;100.00
10718;BME280;13513;42.700;23.124;2022-11-13T03:47:21;94218.14;;;8.93;100.00
10718;BME280;13513;42.700;23.124;2022-11-13T03:49:53;94214.09;;;8.71;100.00
10718;BME280;13513;42.700;23.124;2022-11-13T03:52:23;94212.08;;;8.73;100.00
10718;BME280;13513;42.700;23.124;2022-11-13T03:54:53;94215.12;;;8.64;100.00
10718;BME280;13513;42.700;23.124;2022-11-13T03:57:24;94214.92;;;8.65;100.00
10718;BME280;13513;42.700;23.124;2022-11-13T03:59:55;94216.53;;;8.60;100.00
10718;BME280;13513;42.700;23.124;2022-11-13T04:02:26;94211.47;;;8.52;100.00
10718;BME280;13513;42.700;23.124;2022-11-13T04:04:56;94205.38;;;8.38;100.00
10718;BME280;13513;42.700;23.124;2022-11-13T04:07:27;94214.59;;;8.25;100.00
10718;BME280;13513;42.700;23.124;2022-11-13T04:09:58;94215.05;;;8.11;100.00
10718;BME280;13513;42.700;23.124;2022-11-13T04:12:28;94214.61;;;8.01;100.00
10718;BME280;13513;42.700;23.124;2022-11-13T04:14:59;94211.97;;;7.95;100.00
10718;BME280;13513;42.700;23.124;2022-11-13T04:17:30;94208.39;;;7.85;100.00
10718;BME280;13513;42.700;23.124;2022-11-13T04:20:01;94213.27;;;7.88;100.00
10718;BME280;13513;42.700;23.124;2022-11-13T04:22:33;94213.27;;;7.88;100.00
10718;BME280;13513;42.700;23.124;2022-11-13T04:25:05;94213.67;;;7.92;100.00
10718;BME280;13513;42.700;23.124;2022-11-13T04:27:35;94212.62;;;7.80;100.00
10718;BME280;13513;42.700;23.124;2022-11-13T04:30:06;94217.36;;;7.80;100.00
10718;BME280;13513;42.700;23.124;2022-11-13T04:32:36;94223.90;;;7.91;100.00
10718;BME280;13513;42.700;23.124;2022-11-13T04:35:07;94224.66;;;7.78;100.00
10718;BME280;13513;42.700;23.124;2022-11-13T04:37:38;94220.04;;;7.87;100.00
10718;BME280;13513;42.700;23.124;2022-11-13T04:40:10;94220.36;;;8.01;100.00
10718;BME280;13513;42.700;23.124;2022-11-13T04:42:41;94218.94;;;7.98;100.00
10718;BME280;13513;42.700;23.124;2022-11-13T04:45:20;94216.95;;;8.07;100.00
10718;BME280;13513;42.700;23.124;2022-11-13T04:47:51;94217.16;;;8.18;100.00
10718;BME280;13513;42.700;23.124;2022-11-13T04:50:22;94219.24;;;8.29;100.00
10718;BME280;13513;42.700;23.124;2022-11-13T04:52:51;94221.38;;;8.37;100.00
10718;BME280;13513;42.700;23.124;2022-11-13T04:55:22;94223.00;;;8.44;100.00
10718;BME280;13513;42.700;23.124;2022-11-13T04:57:55;94228.16;;;8.42;100.00
10718;BME280;13513;42.700;23.124;2022-11-13T05:00:24;94224.84;;;8.50;100.00
10718;BME280;13513;42.700;23.124;2022-11-13T05:02:56;94225.36;;;8.63;100.00
10718;BME280;13513;42.700;23.124;2022-11-13T05:05:29;94223.64;;;8.72;100.00
10718;BME280;13513;42.700;23.124;2022-11-13T05:08:00;94212.27;;;8.78;100.00
10718;BME280;13513;42.700;23.124;2022-11-13T05:10:31;94219.07;;;8.90;100.00
10718;BME280;13513;42.700;23.124;2022-11-13T05:13:02;94229.31;;;8.95;100.00
10718;BME280;13513;42.700;23.124;2022-11-13T05:15:32;94224.83;;;8.96;100.00
10718;BME280;13513;42.700;23.124;2022-11-13T05:18:02;94229.31;;;8.95;100.00
10718;BME280;13513;42.700;23.124;2022-11-13T05:20:34;94222.91;;;9.00;100.00
10718;BME280;13513;42.700;23.124;2022-11-13T05:23:04;94223.41;;;9.00;100.00
10718;BME280;13513;42.700;23.124;2022-11-13T05:25:35;94223.73;;;9.01;100.00
10718;BME280;13513;42.700;23.124;2022-11-13T05:28:06;94224.61;;;9.04;100.00
10718;BME280;13513;42.700;23.124;2022-11-13T05:30:37;94220.05;;;9.08;100.00
10718;BME280;13513;42.700;23.124;2022-11-13T05:33:08;94221.88;;;9.14;100.00
10718;BME280;13513;42.700;23.124;2022-11-13T05:35:39;94222.77;;;9.17;100.00
10718;BME280;13513;42.700;23.124;2022-11-13T05:38:09;94231.09;;;9.21;100.00
10718;BME280;13513;42.700;23.124;2022-11-13T05:40:40;94228.14;;;9.26;100.00
10718;BME280;13513;42.700;23.124;2022-11-13T05:43:11;94222.23;;;9.31;100.00
10718;BME280;13513;42.700;23.124;2022-11-13T05:45:42;94223.00;;;9.16;100.00
10718;BME280;13513;42.700;23.124;2022-11-13T05:48:13;94229.69;;;9.18;100.00
10718;BME280;13513;42.700;23.124;2022-11-13T05:50:44;94233.13;;;9.25;100.00
10718;BME280;13513;42.700;23.124;2022-11-13T05:53:15;94241.44;;;9.09;100.00
10718;BME280;13513;42.700;23.124;2022-11-13T05:55:46;94242.25;;;9.16;100.00
10718;BME280;13513;42.700;23.124;2022-11-13T05:58:17;94236.29;;;9.12;100.00
10718;BME280;13513;42.700;23.124;2022-11-13T06:00:48;94244.28;;;9.21;100.00
10718;BME280;13513;42.700;23.124;2022-11-13T06:03:19;94250.56;;;9.26;100.00
10718;BME280;13513;42.700;23.124;2022-11-13T06:05:50;94251.14;;;9.41;100.00
10718;BME280;13513;42.700;23.124;2022-11-13T06:08:20;94251.84;;;9.39;100.00
10718;BME280;13513;42.700;23.124;2022-11-13T06:10:51;94249.09;;;9.43;100.00
10718;BME280;13513;42.700;23.124;2022-11-13T06:13:23;94259.03;;;9.48;100.00
10718;BME280;13513;42.700;23.124;2022-11-13T06:15:54;94261.47;;;9.49;100.00
10718;BME280;13513;42.700;23.124;2022-11-13T06:18:25;94257.58;;;9.58;100.00
10718;BME280;13513;42.700;23.124;2022-11-13T06:21:17;94256.03;;;9.66;100.00
10718;BME280;13513;42.700;23.124;2022-11-13T06:23:34;94257.56;;;9.65;100.00
10718;BME280;13513;42.700;23.124;2022-11-13T06:26:08;94257.91;;;9.81;100.00
10718;BME280;13513;42.700;23.124;2022-11-13T06:28:38;94253.56;;;10.00;100.00
10718;BME280;13513;42.700;23.124;2022-11-13T06:31:14;94255.38;;;10.12;100.00
10718;BME280;13513;42.700;23.124;2022-11-13T06:33:45;94266.35;;;10.31;100.00
10718;BME280;13513;42.700;23.124;2022-11-13T06:36:24;94267.37;;;10.52;100.00
10718;BME280;13513;42.700;23.124;2022-11-13T06:38:53;94262.91;;;10.77;100.00
10718;BME280;13513;42.700;23.124;2022-11-13T06:41:27;94258.84;;;10.90;100.00
10718;BME280;13513;42.700;23.124;2022-11-13T06:43:58;94256.59;;;11.18;100.00
10718;BME280;13513;42.700;23.124;2022-11-13T06:46:29;94255.36;;;11.39;100.00
10718;BME280;13513;42.700;23.124;2022-11-13T06:49:01;94245.55;;;11.55;100.00
10718;BME280;13513;42.700;23.124;2022-11-13T06:51:32;94252.12;;;11.70;100.00
10718;BME280;13513;42.700;23.124;2022-11-13T06:54:02;94257.51;;;11.82;100.00
10718;BME280;13513;42.700;23.124;2022-11-13T06:56:31;94258.82;;;11.91;100.00
10718;BME280;13513;42.700;23.124;2022-11-13T06:59:02;94253.23;;;11.90;100.00
10718;BME280;13513;42.700;23.124;2022-11-13T07:01:33;94256.99;;;11.91;100.00
10718;BME280;13513;42.700;23.124;2022-11-13T07:04:05;94254.33;;;11.82;100.00
10718;BME280;13513;42.700;23.124;2022-11-13T07:06:36;94260.19;;;11.57;98.13
10718;BME280;13513;42.700;23.124;2022-11-13T07:09:07;94267.09;;;11.49;98.55
10718;BME280;13513;42.700;23.124;2022-11-13T07:11:37;94260.97;;;11.49;98.31
10718;BME280;13513;42.700;23.124;2022-11-13T07:14:12;94264.60;;;11.21;100.00
10718;BME280;13513;42.700;23.124;2022-11-13T07:16:42;94256.23;;;11.24;100.00
10718;BME280;13513;42.700;23.124;2022-11-13T07:19:12;94257.71;;;11.29;100.00
10718;BME280;13513;42.700;23.124;2022-11-13T07:21:43;94262.75;;;11.21;100.00
10718;BME280;13513;42.700;23.124;2022-11-13T07:24:16;94267.40;;;11.26;100.00
10718;BME280;13513;42.700;23.124;2022-11-13T07:26:49;94266.78;;;11.15;100.00
10718;BME280;13513;42.700;23.124;2022-11-13T07:29:20;94258.64;;;11.25;100.00
10718;BME280;13513;42.700;23.124;2022-11-13T07:31:50;94261.47;;;11.30;100.00
10718;BME280;13513;42.700;23.124;2022-11-13T07:34:22;94265.73;;;11.40;100.00
10718;BME280;13513;42.700;23.124;2022-11-13T07:36:53;94260.00;;;11.43;100.00
10718;BME280;13513;42.700;23.124;2022-11-13T07:39:25;94257.22;;;11.38;100.00
10718;BME280;13513;42.700;23.124;2022-11-13T07:41:56;94253.53;;;11.48;100.00
10718;BME280;13513;42.700;23.124;2022-11-13T07:44:27;94259.10;;;11.65;100.00
10718;BME280;13513;42.700;23.124;2022-11-13T07:46:57;94262.08;;;11.59;99.41
10718;BME280;13513;42.700;23.124;2022-11-13T07:49:28;94258.14;;;11.35;98.81
10718;BME280;13513;42.700;23.124;2022-11-13T07:51:59;94260.00;;;11.52;98.42
10718;BME280;13513;42.700;23.124;2022-11-13T07:54:30;94259.41;;;11.75;97.88
10718;BME280;13513;42.700;23.124;2022-11-13T07:57:01;94251.33;;;11.97;95.91
10718;BME280;13513;42.700;23.124;2022-11-13T07:59:31;94252.67;;;12.17;94.73
10718;BME280;13513;42.700;23.124;2022-11-13T08:02:01;94254.13;;;11.93;93.80
10718;BME280;13513;42.700;23.124;2022-11-13T08:04:32;94248.66;;;11.88;93.31
10718;BME280;13513;42.700;23.124;2022-11-13T08:07:03;94254.93;;;11.84;93.88
10718;BME280;13513;42.700;23.124;2022-11-13T08:09:33;94256.52;;;11.94;95.41
10718;BME280;13513;42.700;23.124;2022-11-13T08:12:03;94252.13;;;11.88;96.43
10718;BME280;13513;42.700;23.124;2022-11-13T08:14:33;94249.69;;;11.69;94.46
10718;BME280;13513;42.700;23.124;2022-11-13T08:17:04;94252.31;;;11.51;97.27
10718;BME280;13513;42.700;23.124;2022-11-13T08:19:35;94260.14;;;11.39;97.20
10718;BME280;13513;42.700;23.124;2022-11-13T08:22:07;94248.92;;;11.44;97.55
10718;BME280;13513;42.700;23.124;2022-11-13T08:24:37;94246.41;;;11.58;97.78
10718;BME280;13513;42.700;23.124;2022-11-13T08:27:08;94253.84;;;11.58;98.31
10718;BME280;13513;42.700;23.124;2022-11-13T08:29:39;94252.05;;;11.68;97.19
10718;BME280;13513;42.700;23.124;2022-11-13T08:32:12;94257.20;;;11.63;96.60
10718;BME280;13513;42.700;23.124;2022-11-13T08:34:41;94261.29;;;11.59;98.46
10718;BME280;13513;42.700;23.124;2022-11-13T08:37:11;94263.53;;;11.71;97.79
10718;BME280;13513;42.700;23.124;2022-11-13T08:39:42;94266.17;;;11.80;97.73
10718;BME280;13513;42.700;23.124;2022-11-13T08:42:13;94265.09;;;11.87;96.49
10718;BME280;13513;42.700;23.124;2022-11-13T08:44:43;94269.78;;;11.85;96.26
10718;BME280;13513;42.700;23.124;2022-11-13T08:47:14;94264.10;;;12.00;98.46
10718;BME280;13513;42.700;23.124;2022-11-13T08:49:44;94269.62;;;12.16;94.48
10718;BME280;13513;42.700;23.124;2022-11-13T08:52:19;94268.91;;;12.39;89.90
10718;BME280;13513;42.700;23.124;2022-11-13T08:54:50;94271.12;;;12.42;90.94
10718;BME280;13513;42.700;23.124;2022-11-13T08:57:21;94276.55;;;12.56;86.05
10718;BME280;13513;42.700;23.124;2022-11-13T08:59:52;94280.70;;;12.34;81.32
10718;BME280;13513;42.700;23.124;2022-11-13T09:02:24;94270.66;;;11.97;87.36
10718;BME280;13513;42.700;23.124;2022-11-13T09:04:56;94275.81;;;11.92;89.85
10718;BME280;13513;42.700;23.124;2022-11-13T09:07:27;94277.80;;;11.88;90.87
10718;BME280;13513;42.700;23.124;2022-11-13T09:09:58;94278.91;;;11.80;90.93
10718;BME280;13513;42.700;23.124;2022-11-13T09:12:29;94277.43;;;11.93;88.31
10718;BME280;13513;42.700;23.124;2022-11-13T09:15:00;94276.14;;;11.60;93.05
10718;BME280;13513;42.700;23.124;2022-11-13T09:17:31;94282.15;;;11.58;92.82
10718;BME280;13513;42.700;23.124;2022-11-13T09:20:02;94277.16;;;11.25;95.75
10718;BME280;13513;42.700;23.124;2022-11-13T09:22:34;94276.85;;;11.49;95.31
10718;BME280;13513;42.700;23.124;2022-11-13T09:25:04;94275.81;;;11.41;97.05
10718;BME280;13513;42.700;23.124;2022-11-13T09:27:34;94271.48;;;11.55;98.97
10718;BME280;13513;42.700;23.124;2022-11-13T09:30:09;94272.16;;;11.60;97.40
10718;BME280;13513;42.700;23.124;2022-11-13T09:32:40;94276.23;;;11.62;95.25
10718;BME280;13513;42.700;23.124;2022-11-13T09:35:10;94275.59;;;11.51;96.83
10718;BME280;13513;42.700;23.124;2022-11-13T09:37:40;94263.36;;;11.32;99.37
10718;BME280;13513;42.700;23.124;2022-11-13T09:40:14;94274.56;;;11.10;99.64
10718;BME280;13513;42.700;23.124;2022-11-13T09:42:45;94267.53;;;11.22;99.10
10718;BME280;13513;42.700;23.124;2022-11-13T09:45:16;94265.11;;;11.20;98.21
10718;BME280;13513;42.700;23.124;2022-11-13T09:47:49;94256.25;;;11.42;97.51
10718;BME280;13513;42.700;23.124;2022-11-13T09:50:28;94254.42;;;11.33;99.39
10718;BME280;13513;42.700;23.124;2022-11-13T09:52:58;94257.29;;;11.41;98.29
10718;BME280;13513;42.700;23.124;2022-11-13T09:55:37;94254.42;;;11.42;98.38
10718;BME280;13513;42.700;23.124;2022-11-13T09:58:18;94256.78;;;11.50;97.61
10718;BME280;13513;42.700;23.124;2022-11-13T10:00:42;94251.20;;;11.58;97.46
10718;BME280;13513;42.700;23.124;2022-11-13T10:08:54;94246.52;;;11.27;100.00
10718;BME280;13513;42.700;23.124;2022-11-13T10:11:35;94244.52;;;11.47;98.79
10718;BME280;13513;42.700;23.124;2022-11-13T10:14:02;94241.88;;;11.47;98.25
10718;BME280;13513;42.700;23.124;2022-11-13T10:16:47;94244.47;;;11.62;98.21
10718;BME280;13513;42.700;23.124;2022-11-13T10:19:30;94233.91;;;12.19;95.03
10718;BME280;13513;42.700;23.124;2022-11-13T10:22:15;94236.05;;;12.19;94.39
10718;BME280;13513;42.700;23.124;2022-11-13T10:24:44;94226.47;;;12.28;92.36
10718;BME280;13513;42.700;23.124;2022-11-13T10:27:15;94233.18;;;12.51;89.08
10718;BME280;13513;42.700;23.124;2022-11-13T10:29:46;94224.16;;;12.40;89.69
10718;BME280;13513;42.700;23.124;2022-11-13T10:32:22;94231.16;;;12.76;86.32
10718;BME280;13513;42.700;23.124;2022-11-13T10:35:08;94230.42;;;13.19;83.24
10718;BME280;13513;42.700;23.124;2022-11-13T10:37:51;94223.20;;;13.40;80.64
10718;BME280;13513;42.700;23.124;2022-11-13T10:40:30;94225.78;;;13.49;82.26
10718;BME280;13513;42.700;23.124;2022-11-13T10:43:06;94222.38;;;13.39;81.63
10718;BME280;13513;42.700;23.124;2022-11-13T10:45:36;94223.08;;;13.23;80.13
10718;BME280;13513;42.700;23.124;2022-11-13T10:48:23;94216.11;;;12.88;83.85
10718;BME280;13513;42.700;23.124;2022-11-13T10:51:00;94211.02;;;12.86;84.42
10718;BME280;13513;42.700;23.124;2022-11-13T10:53:34;94207.74;;;13.25;83.06
10718;BME280;13513;42.700;23.124;2022-11-13T10:55:59;94206.13;;;13.24;81.26
10718;BME280;13513;42.700;23.124;2022-11-13T10:58:29;94213.20;;;12.89;83.83
10718;BME280;13513;42.700;23.124;2022-11-13T11:01:00;94205.89;;;12.82;84.41
10718;BME280;13513;42.700;23.124;2022-11-13T11:03:31;94209.05;;;12.93;84.16
10718;BME280;13513;42.700;23.124;2022-11-13T11:06:04;94208.98;;;13.57;80.38
10718;BME280;13513;42.700;23.124;2022-11-13T11:08:35;94200.22;;;14.92;72.48
10718;BME280;13513;42.700;23.124;2022-11-13T11:11:13;94190.12;;;15.10;67.07
10718;BME280;13513;42.700;23.124;2022-11-13T11:14:10;94188.49;;;15.99;62.66
10718;BME280;13513;42.700;23.124;2022-11-13T11:16:40;94192.52;;;16.45;58.55
10718;BME280;13513;42.700;23.124;2022-11-13T11:19:12;94191.17;;;17.30;55.02
10718;BME280;13513;42.700;23.124;2022-11-13T11:21:44;94185.25;;;16.41;56.79
10718;BME280;13513;42.700;23.124;2022-11-13T11:24:32;94180.19;;;16.18;57.22
10718;BME280;13513;42.700;23.124;2022-11-13T11:27:14;94178.72;;;16.08;59.53
10718;BME280;13513;42.700;23.124;2022-11-13T11:29:45;94176.49;;;15.40;63.27
10718;BME280;13513;42.700;23.124;2022-11-13T11:32:24;94169.66;;;15.87;60.16
10718;BME280;13513;42.700;23.124;2022-11-13T11:37:34;94173.33;;;15.26;62.97
10718;BME280;13513;42.700;23.124;2022-11-13T11:43:04;94170.12;;;14.61;66.80
10718;BME280;13513;42.700;23.124;2022-11-13T11:45:42;94171.44;;;14.75;68.21
10718;BME280;13513;42.700;23.124;2022-11-13T11:48:18;94172.45;;;14.71;65.94
10718;BME280;13513;42.700;23.124;2022-11-13T11:53:56;94161.55;;;15.22;63.97
10718;BME280;13513;42.700;23.124;2022-11-13T11:56:41;94152.84;;;15.27;64.33
10718;BME280;13513;42.700;23.124;2022-11-13T12:01:55;94154.98;;;14.47;65.68
10718;BME280;13513;42.700;23.124;2022-11-13T12:10:02;94154.59;;;14.39;67.58
10718;BME280;13513;42.700;23.124;2022-11-13T12:21:17;94157.61;;;13.15;77.20
10718;BME280;13513;42.700;23.124;2022-11-13T12:24:01;94153.11;;;12.95;79.96
10718;BME280;13513;42.700;23.124;2022-11-13T12:32:23;94153.87;;;12.28;83.53
10718;BME280;13513;42.700;23.124;2022-11-13T12:34:55;94153.73;;;12.03;85.73
10718;BME280;13513;42.700;23.124;2022-11-13T12:40:44;94159.50;;;11.91;88.10
10718;BME280;13513;42.700;23.124;2022-11-13T12:46:03;94145.64;;;11.68;89.70
10718;BME280;13513;42.700;23.124;2022-11-13T12:48:48;94143.87;;;11.62;91.25
10718;BME280;13513;42.700;23.124;2022-11-13T12:51:18;94145.75;;;11.55;90.78
10718;BME280;13513;42.700;23.124;2022-11-13T12:53:53;94143.19;;;11.49;91.75
10718;BME280;13513;42.700;23.124;2022-11-13T13:04:53;94145.47;;;11.36;93.68
10718;BME280;13513;42.700;23.124;2022-11-13T13:07:17;94142.46;;;11.33;92.97
10718;BME280;13513;42.700;23.124;2022-11-13T13:23:33;94142.66;;;11.13;95.41
10718;BME280;13513;42.700;23.124;2022-11-13T13:29:04;94068.98;;;10.47;95.86
10718;BME280;13513;42.700;23.124;2022-11-13T13:31:37;94137.73;;;10.90;96.41
10718;BME280;13513;42.700;23.124;2022-11-13T13:34:42;94140.30;;;10.87;97.48
10718;BME280;13513;42.700;23.124;2022-11-13T13:46:12;94130.45;;;10.94;96.53
10718;BME280;13513;42.700;23.124;2022-11-13T13:48:42;94131.98;;;10.84;97.38
10718;BME280;13513;42.700;23.124;2022-11-13T13:51:32;94132.31;;;10.60;98.10
10718;BME280;13513;42.700;23.124;2022-11-13T13:54:04;94135.59;;;10.56;99.29
10718;BME280;13513;42.700;23.124;2022-11-13T13:56:41;94134.41;;;10.85;97.65
10718;BME280;13513;42.700;23.124;2022-11-13T13:59:23;94127.91;;;10.97;96.33
10718;BME280;13513;42.700;23.124;2022-11-13T14:01:56;94129.00;;;11.16;95.17
10718;BME280;13513;42.700;23.124;2022-11-13T14:04:28;94131.80;;;11.39;92.49
10718;BME280;13513;42.700;23.124;2022-11-13T14:07:01;94133.70;;;11.32;92.55
10718;BME280;13513;42.700;23.124;2022-11-13T14:09:32;94127.39;;;11.24;92.49
10718;BME280;13513;42.700;23.124;2022-11-13T14:12:15;94122.63;;;11.24;92.61
10718;BME280;13513;42.700;23.124;2022-11-13T14:14:39;94127.55;;;11.29;91.40
10718;BME280;13513;42.700;23.124;2022-11-13T14:17:10;94128.34;;;11.48;91.21
10718;BME280;13513;42.700;23.124;2022-11-13T14:19:47;94121.14;;;11.55;89.49
10718;BME280;13513;42.700;23.124;2022-11-13T14:22:13;94123.36;;;11.40;90.22
10718;BME280;13513;42.700;23.124;2022-11-13T14:24:56;94115.25;;;11.35;90.46
10718;BME280;13513;42.700;23.124;2022-11-13T14:27:23;94114.00;;;11.01;92.66
10718;BME280;13513;42.700;23.124;2022-11-13T14:29:57;94111.82;;;10.65;95.86
10718;BME280;13513;42.700;23.124;2022-11-13T14:32:32;94111.61;;;10.42;98.35
10718;BME280;13513;42.700;23.124;2022-11-13T14:35:03;94115.27;;;10.32;99.13
10718;BME280;13513;42.700;23.124;2022-11-13T14:37:38;94117.14;;;10.09;100.00